Terminal Aerodrome Forecast
Issued by NWS

Home | Current Version | Previous Version | Text Only | Print | Product List | Glossary On
Versions: 1 2 3 4 5 6 7 8 9 10 11 12 13 14 15 16
325
FTUS43 KMPX 280520
TAFAXN
TAF
KAXN 280520Z 2806/0106 15008KT P6SM SCT040 OVC070
     FM280800 09006KT P6SM -SN SCT012 OVC040
     FM281000 03007KT 2SM -SN BKN012 OVC030
     FM281200 01009KT 4SM -SN BKN008 OVC012
     FM281600 01011KT P6SM OVC012=

USA.gov is the U.S. government's official web portal to all federal, state and local government web resources and services.